Time;durP1;ratioP1;P1;durP2;ratioP2;P2;SDS_P1;SDS_P2;PMS_P1;PMS_P2;Temp;Humidity;BMP_temperature;BMP_pressure;BME280_temperature;BME280_humidity;BME280_pressure;Samples;Min_cycle;Max_cycle;Signal;HPM_P1;HPM_P2
2023/08/03 00:02:25;;;;;;;1.13;0.80;;;24.40;99.60;;;;;;4965206;29;20451;-96
2023/08/03 00:04:52;;;;;;;1.30;0.77;;;24.40;99.90;;;;;;4963924;29;20532;-95
2023/08/03 00:07:19;;;;;;;1.10;0.80;;;24.40;99.70;;;;;;4965844;29;20447;-95
2023/08/03 00:09:47;;;;;;;2.60;0.80;;;24.40;99.70;;;;;;4965701;29;20446;-96
2023/08/03 00:12:17;;;;;;;2.53;0.77;;;24.20;99.50;;;;;;4966047;29;20462;-96
2023/08/03 00:14:46;;;;;;;1.40;0.80;;;24.40;99.60;;;;;;4966130;29;20528;-96
2023/08/03 00:17:13;;;;;;;1.10;0.80;;;24.40;99.60;;;;;;4964744;29;20444;-96
2023/08/03 00:19:39;;;;;;;1.07;0.70;;;24.40;99.60;;;;;;4963603;29;20455;-96
2023/08/03 00:22:07;;;;;;;0.90;0.60;;;24.40;99.80;;;;;;4964055;29;20456;-96
2023/08/03 00:24:34;;;;;;;1.00;0.70;;;24.40;99.60;;;;;;4963730;29;20482;-96
2023/08/03 00:27:02;;;;;;;0.90;0.60;;;24.40;99.60;;;;;;4964280;29;20535;-95
2023/08/03 00:29:29;;;;;;;1.50;0.80;;;24.40;99.60;;;;;;4964290;29;20531;-96
2023/08/03 00:32:00;;;;;;;1.63;0.90;;;24.40;99.60;;;;;;4963737;29;20969;-96
2023/08/03 00:34:27;;;;;;;1.10;0.80;;;24.40;99.50;;;;;;4964333;29;20451;-96
2023/08/03 00:36:53;;;;;;;1.37;0.70;;;24.30;99.40;;;;;;4964926;29;20539;-95
2023/08/03 00:39:20;;;;;;;1.17;0.87;;;24.30;99.50;;;;;;4963459;29;20543;-96
2023/08/03 00:41:47;;;;;;;1.10;0.77;;;24.40;99.40;;;;;;4965967;29;20473;-96
2023/08/03 00:44:14;;;;;;;1.97;0.90;;;24.40;99.50;;;;;;4965770;29;20488;-95
2023/08/03 00:46:41;;;;;;;1.00;0.70;;;24.40;99.60;;;;;;4964107;29;20468;-96
2023/08/03 00:49:10;;;;;;;1.00;0.70;;;24.40;99.50;;;;;;4964484;29;20455;-96
2023/08/03 00:51:37;;;;;;;1.00;0.60;;;24.40;99.40;;;;;;4963763;29;21127;-95
2023/08/03 00:54:07;;;;;;;1.20;0.70;;;24.40;99.40;;;;;;4962497;29;20527;-96
2023/08/03 00:56:34;;;;;;;1.30;0.70;;;24.30;99.40;;;;;;4961834;29;20434;-95
2023/08/03 00:59:01;;;;;;;1.20;0.80;;;24.40;99.60;;;;;;4961960;29;20488;-95
2023/08/03 01:01:28;;;;;;;1.10;0.60;;;24.40;99.60;;;;;;4961822;29;20456;-94
2023/08/03 01:03:55;;;;;;;1.17;0.87;;;24.30;99.50;;;;;;4960289;29;20473;-95
2023/08/03 01:06:24;;;;;;;1.10;0.80;;;24.40;99.60;;;;;;4960317;29;20475;-94
2023/08/03 01:08:51;;;;;;;1.10;0.90;;;24.40;99.50;;;;;;4963002;29;20480;-96
2023/08/03 01:11:18;;;;;;;0.97;0.70;;;24.30;99.20;;;;;;4964426;29;20509;-96
2023/08/03 01:13:45;;;;;;;1.40;0.70;;;24.30;99.20;;;;;;4963540;29;20874;-95
2023/08/03 01:16:12;;;;;;;2.33;0.80;;;24.30;99.10;;;;;;4963269;29;20511;-95
2023/08/03 01:18:42;;;;;;;1.20;0.80;;;24.30;99.40;;;;;;4964084;29;20487;-96
2023/08/03 01:21:10;;;;;;;1.00;0.70;;;24.30;99.30;;;;;;4964405;29;20455;-95
2023/08/03 01:23:38;;;;;;;1.30;0.70;;;24.20;99.10;;;;;;4962931;29;20451;-95
2023/08/03 01:26:05;;;;;;;1.10;0.80;;;24.30;99.30;;;;;;4964058;29;20442;-96
2023/08/03 01:28:32;;;;;;;1.43;0.87;;;24.30;99.20;;;;;;4963214;29;20893;-96
2023/08/03 01:30:59;;;;;;;1.30;0.70;;;24.30;99.00;;;;;;4963201;29;20451;-96
2023/08/03 01:33:26;;;;;;;0.90;0.60;;;24.30;99.00;;;;;;4963100;29;20589;-96
2023/08/03 01:35:54;;;;;;;0.93;0.63;;;24.30;99.00;;;;;;4962907;29;20539;-96
2023/08/03 01:38:21;;;;;;;1.40;0.80;;;24.30;99.00;;;;;;4963954;29;20483;-96
2023/08/03 01:40:49;;;;;;;1.00;0.70;;;24.30;98.90;;;;;;4965257;29;20458;-96
2023/08/03 01:43:16;;;;;;;1.20;0.83;;;24.30;99.00;;;;;;4966416;29;20464;-96
2023/08/03 01:45:43;;;;;;;1.10;0.70;;;24.30;99.00;;;;;;4964886;29;20547;-96
2023/08/03 01:48:10;;;;;;;1.77;0.80;;;24.30;98.90;;;;;;4966183;29;20454;-96
2023/08/03 01:50:37;;;;;;;1.20;0.80;;;24.20;98.90;;;;;;4964815;28;20458;-96
2023/08/03 01:53:04;;;;;;;1.00;0.70;;;24.30;99.10;;;;;;4969598;29;20451;-96
2023/08/03 01:55:31;;;;;;;1.00;0.70;;;24.30;99.00;;;;;;4968687;29;20479;-96
2023/08/03 01:57:59;;;;;;;1.70;0.70;;;24.30;99.10;;;;;;4968934;29;20581;-96
2023/08/03 02:00:26;;;;;;;0.90;0.70;;;24.30;99.10;;;;;;4969108;29;20451;-96
2023/08/03 02:02:53;;;;;;;1.27;0.73;;;24.30;99.20;;;;;;4969353;29;20445;-96
2023/08/03 02:05:20;;;;;;;1.07;0.70;;;24.30;99.10;;;;;;4969601;29;21023;-96
2023/08/03 02:07:53;;;;;;;0.90;0.60;;;24.30;99.30;;;;;;4970064;29;20479;-96
2023/08/03 02:10:21;;;;;;;1.10;0.60;;;24.30;99.20;;;;;;4970302;29;20435;-96
2023/08/03 02:12:48;;;;;;;1.00;0.63;;;24.30;99.20;;;;;;4970656;29;20443;-96
2023/08/03 02:15:17;;;;;;;2.00;0.80;;;24.30;99.40;;;;;;4970750;29;20476;-95
2023/08/03 02:17:45;;;;;;;1.20;0.80;;;24.30;99.20;;;;;;4970093;29;20442;-96
2023/08/03 02:20:13;;;;;;;2.13;0.70;;;24.30;99.20;;;;;;4968592;29;20464;-96
2023/08/03 02:22:40;;;;;;;1.10;0.70;;;24.30;99.30;;;;;;4969589;29;20454;-96
2023/08/03 02:25:08;;;;;;;1.03;0.73;;;24.30;99.40;;;;;;4969734;29;20446;-96
2023/08/03 02:27:35;;;;;;;1.30;0.80;;;24.20;99.30;;;;;;4969819;29;20467;-96
2023/08/03 02:30:02;;;;;;;0.90;0.60;;;24.20;99.60;;;;;;4970251;29;20471;-96
2023/08/03 02:32:31;;;;;;;1.20;0.80;;;24.30;99.00;;;;;;4968197;29;20860;-96
2023/08/03 02:38:19;;;;;;;1.03;0.63;;;24.20;99.20;;;;;;4967262;29;20498;-96
2023/08/03 02:40:46;;;;;;;1.20;0.80;;;24.20;99.20;;;;;;4966536;29;20455;-96
2023/08/03 02:43:13;;;;;;;1.10;0.80;;;24.20;98.90;;;;;;4966451;29;20511;-96
2023/08/03 02:45:40;;;;;;;1.00;0.70;;;24.20;99.10;;;;;;4967379;29;20480;-96
2023/08/03 02:48:09;;;;;;;1.10;0.90;;;24.20;98.90;;;;;;4968999;29;20465;-96
2023/08/03 02:50:38;;;;;;;1.00;0.70;;;24.20;98.90;;;;;;4968134;29;20511;-96
2023/08/03 02:53:05;;;;;;;1.00;0.70;;;24.20;98.70;;;;;;4967747;29;20450;-96
2023/08/03 02:55:32;;;;;;;1.10;0.83;;;24.20;98.70;;;;;;4966596;29;20447;-96
2023/08/03 02:57:59;;;;;;;0.90;0.60;;;24.20;98.60;;;;;;4967691;29;20471;-96
2023/08/03 03:00:26;;;;;;;2.80;0.60;;;24.20;98.70;;;;;;4967456;29;20447;-96
2023/08/03 03:02:53;;;;;;;0.93;0.67;;;24.20;98.70;;;;;;4966474;28;20456;-95
2023/08/03 03:05:21;;;;;;;1.03;0.80;;;24.20;98.50;;;;;;4966735;29;20500;-92
2023/08/03 03:07:48;;;;;;;1.30;0.80;;;24.20;98.80;;;;;;4961592;29;20461;-93
2023/08/03 03:10:15;;;;;;;1.73;0.70;;;24.20;98.40;;;;;;4964465;29;20914;-94
2023/08/03 03:12:42;;;;;;;1.00;0.70;;;24.20;98.50;;;;;;4965381;29;20485;-96
2023/08/03 03:15:10;;;;;;;1.10;0.70;;;24.20;98.50;;;;;;4970047;29;20447;-96
2023/08/03 03:17:38;;;;;;;0.90;0.70;;;24.20;98.60;;;;;;4969917;29;20471;-96
2023/08/03 03:20:06;;;;;;;1.00;0.80;;;24.20;98.50;;;;;;4968901;29;20979;-96
2023/08/03 03:22:35;;;;;;;2.40;0.80;;;24.20;98.50;;;;;;4968689;29;20449;-96
2023/08/03 03:25:02;;;;;;;0.90;0.60;;;24.20;98.40;;;;;;4967165;29;20459;-96
2023/08/03 03:27:29;;;;;;;1.00;0.80;;;24.20;98.40;;;;;;4966297;29;20466;-96
2023/08/03 03:29:56;;;;;;;1.93;0.73;;;24.20;98.40;;;;;;4966946;29;20430;-95
2023/08/03 03:32:23;;;;;;;1.40;0.80;;;24.20;98.30;;;;;;4966976;29;20480;-96
2023/08/03 03:34:50;;;;;;;1.00;0.70;;;24.20;98.30;;;;;;4967438;29;20544;-95
2023/08/03 03:37:17;;;;;;;1.13;0.80;;;24.20;98.40;;;;;;4966507;29;20507;-95
2023/08/03 03:43:07;;;;;;;1.10;0.70;;;24.20;98.40;;;;;;4968905;29;20459;-96
2023/08/03 03:45:34;;;;;;;1.23;0.70;;;24.20;98.40;;;;;;4968752;29;20473;-95
2023/08/03 03:48:01;;;;;;;1.00;0.73;;;24.10;98.30;;;;;;4969147;29;20478;-96
2023/08/03 03:50:28;;;;;;;0.90;0.60;;;24.20;98.20;;;;;;4968824;29;20459;-96
2023/08/03 03:52:55;;;;;;;1.30;0.80;;;24.20;98.30;;;;;;4968032;29;20547;-96
2023/08/03 03:55:22;;;;;;;1.00;0.80;;;24.20;98.30;;;;;;4969300;29;20472;-95
2023/08/03 03:57:49;;;;;;;1.00;0.60;;;24.20;98.40;;;;;;4970549;29;20510;-96
2023/08/03 04:00:18;;;;;;;1.03;0.70;;;24.20;98.40;;;;;;4970159;29;20497;-96
2023/08/03 04:02:47;;;;;;;1.00;0.70;;;24.20;98.30;;;;;;4970719;29;20447;-96
2023/08/03 04:08:41;;;;;;;1.20;0.70;;;24.20;98.40;;;;;;4968981;29;20404;-96
2023/08/03 04:11:08;;;;;;;1.00;0.70;;;24.20;98.40;;;;;;4969058;29;20491;-96
2023/08/03 04:13:36;;;;;;;1.10;0.80;;;24.20;98.50;;;;;;4968020;28;20470;-96
2023/08/03 04:16:04;;;;;;;1.20;0.70;;;24.20;98.40;;;;;;4969089;29;20451;-94
2023/08/03 04:18:31;;;;;;;1.50;0.90;;;24.10;98.40;;;;;;4967135;29;20532;-96
2023/08/03 04:20:58;;;;;;;0.97;0.73;;;24.20;98.30;;;;;;4966622;29;20442;-93
2023/08/03 04:23:25;;;;;;;1.20;0.73;;;24.20;98.30;;;;;;4965469;29;20471;-94
2023/08/03 04:25:56;;;;;;;1.20;0.70;;;24.20;98.30;;;;;;4966177;29;20515;-96
2023/08/03 04:28:23;;;;;;;1.50;0.80;;;24.20;98.30;;;;;;4965648;29;20575;-95
2023/08/03 04:30:50;;;;;;;1.40;0.77;;;24.20;98.20;;;;;;4966199;29;20474;-94
2023/08/03 04:33:19;;;;;;;1.30;0.80;;;24.10;98.10;;;;;;4966244;29;20462;-93
2023/08/03 04:35:46;;;;;;;1.00;0.70;;;24.20;98.20;;;;;;4965936;29;20452;-95
2023/08/03 04:38:13;;;;;;;1.10;0.80;;;24.20;98.20;;;;;;4965150;29;20440;-95
2023/08/03 04:40:40;;;;;;;0.90;0.60;;;24.10;98.30;;;;;;4965128;29;20566;-96
2023/08/03 04:43:07;;;;;;;1.13;0.80;;;24.20;98.20;;;;;;4966191;29;20526;-95
2023/08/03 04:45:34;;;;;;;1.00;0.70;;;24.20;98.30;;;;;;4966714;29;20480;-95
2023/08/03 04:48:02;;;;;;;1.00;0.60;;;24.10;98.20;;;;;;4963978;29;20448;-95
2023/08/03 04:50:30;;;;;;;2.17;0.60;;;24.20;98.20;;;;;;4963835;29;20451;-95
2023/08/03 04:52:57;;;;;;;0.90;0.70;;;24.10;98.20;;;;;;4962206;29;20546;-94
2023/08/03 04:55:24;;;;;;;1.00;0.60;;;24.10;98.20;;;;;;4964205;29;20534;-94
2023/08/03 04:57:51;;;;;;;1.30;0.70;;;24.20;98.30;;;;;;4965266;29;20521;-92
2023/08/03 05:00:18;;;;;;;1.03;0.60;;;24.10;98.20;;;;;;4965942;29;20994;-95
2023/08/03 05:02:45;;;;;;;1.67;0.80;;;24.10;98.20;;;;;;4964404;29;20483;-96
2023/08/03 05:05:14;;;;;;;1.63;0.80;;;24.10;98.70;;;;;;4963871;29;20482;-93
2023/08/03 05:07:42;;;;;;;1.50;0.87;;;24.20;98.40;;;;;;4963985;29;20530;-93
2023/08/03 05:10:10;;;;;;;1.20;0.77;;;24.10;98.30;;;;;;4963921;29;20528;-93
2023/08/03 05:12:38;;;;;;;1.10;0.70;;;24.10;98.30;;;;;;4965154;29;20526;-96
2023/08/03 05:15:06;;;;;;;1.20;0.70;;;24.10;98.40;;;;;;4966206;29;20464;-94
2023/08/03 05:17:33;;;;;;;1.10;0.80;;;24.10;98.50;;;;;;4968002;29;20449;-93
2023/08/03 05:20:00;;;;;;;1.00;0.70;;;24.10;98.40;;;;;;4966751;29;20491;-92
2023/08/03 05:22:26;;;;;;;1.00;0.70;;;24.10;98.30;;;;;;4967120;29;21004;-94
2023/08/03 05:24:55;;;;;;;0.90;0.60;;;24.10;98.30;;;;;;4966087;28;20454;-94
2023/08/03 05:27:22;;;;;;;1.10;0.80;;;24.20;98.30;;;;;;4969241;29;20511;-96
2023/08/03 05:29:49;;;;;;;1.20;0.80;;;24.10;98.20;;;;;;4968855;29;20456;-95
2023/08/03 05:32:16;;;;;;;1.10;0.80;;;24.10;98.30;;;;;;4967513;29;20451;-94
2023/08/03 05:34:43;;;;;;;1.00;0.70;;;24.10;98.30;;;;;;4967949;29;20469;-94
2023/08/03 05:37:10;;;;;;;1.20;0.80;;;24.20;98.40;;;;;;4967318;29;20546;-93
2023/08/03 05:39:37;;;;;;;0.90;0.70;;;24.10;98.30;;;;;;4966796;29;20509;-94
2023/08/03 05:42:06;;;;;;;1.17;1.07;;;24.20;98.40;;;;;;4967550;29;20490;-92
2023/08/03 05:44:33;;;;;;;1.00;0.70;;;24.20;98.30;;;;;;4966826;29;20521;-94
2023/08/03 05:47:00;;;;;;;1.20;0.70;;;24.10;98.10;;;;;;4966221;29;20480;-92
2023/08/03 05:49:26;;;;;;;1.10;0.80;;;24.10;98.00;;;;;;4966251;29;20543;-93
2023/08/03 05:51:53;;;;;;;1.33;0.70;;;24.10;98.00;;;;;;4964793;29;20959;-92
2023/08/03 05:54:20;;;;;;;1.10;0.80;;;24.10;98.10;;;;;;4965398;29;20471;-94
2023/08/03 05:56:47;;;;;;;1.00;0.70;;;24.10;98.60;;;;;;4969796;29;20449;-95
2023/08/03 05:59:20;;;;;;;1.10;0.80;;;24.10;98.20;;;;;;4969131;29;20477;-95
2023/08/03 06:01:48;;;;;;;1.10;0.80;;;24.30;98.50;;;;;;4969801;29;20432;-92
2023/08/03 06:04:16;;;;;;;1.00;0.70;;;24.10;98.20;;;;;;4967597;29;20455;-95
2023/08/03 06:06:44;;;;;;;1.00;0.70;;;24.10;98.30;;;;;;4966324;29;20450;-95
2023/08/03 06:09:12;;;;;;;1.00;0.70;;;24.10;98.20;;;;;;4967864;29;20454;-94
2023/08/03 06:11:39;;;;;;;1.00;0.70;;;24.10;98.10;;;;;;4967892;29;20458;-96
2023/08/03 06:14:06;;;;;;;1.00;0.67;;;24.10;98.20;;;;;;4968452;29;20550;-96
2023/08/03 06:16:35;;;;;;;1.10;0.80;;;24.10;98.40;;;;;;4968842;29;20443;-95
2023/08/03 06:19:02;;;;;;;1.20;0.73;;;24.10;98.20;;;;;;4966181;29;20491;-93
2023/08/03 06:21:30;;;;;;;1.90;0.80;;;24.10;98.10;;;;;;4966212;29;20489;-95
2023/08/03 06:23:58;;;;;;;1.10;0.80;;;24.10;98.10;;;;;;4967510;29;20475;-95
2023/08/03 06:26:26;;;;;;;0.90;0.60;;;24.20;98.20;;;;;;4966892;29;20474;-95
2023/08/03 06:28:54;;;;;;;1.97;0.80;;;24.10;98.00;;;;;;4965972;29;20500;-96
2023/08/03 06:31:24;;;;;;;1.33;0.80;;;24.10;98.00;;;;;;4967265;29;20448;-95
2023/08/03 06:33:54;;;;;;;1.00;0.80;;;24.10;98.00;;;;;;4967256;29;20451;-95
2023/08/03 06:36:25;;;;;;;1.20;0.90;;;24.10;97.90;;;;;;4963329;28;20519;-95
2023/08/03 06:38:52;;;;;;;1.00;0.67;;;24.20;98.20;;;;;;4962203;29;20435;-95
2023/08/03 06:41:19;;;;;;;1.00;0.70;;;24.10;98.10;;;;;;4962853;29;20492;-94
2023/08/03 06:43:46;;;;;;;1.00;0.70;;;24.10;98.10;;;;;;4963950;29;20498;-96
2023/08/03 06:46:13;;;;;;;0.90;0.63;;;24.30;98.20;;;;;;4964760;29;20452;-94
2023/08/03 06:48:40;;;;;;;1.00;0.70;;;24.10;98.10;;;;;;4970890;29;20475;-96
2023/08/03 06:51:09;;;;;;;1.20;0.70;;;24.10;98.10;;;;;;4964319;29;20481;-96
2023/08/03 06:53:35;;;;;;;1.83;0.80;;;24.20;98.20;;;;;;4958281;29;20494;-94
2023/08/03 06:56:03;;;;;;;1.00;0.60;;;24.30;98.40;;;;;;4960459;29;20451;-92
2023/08/03 06:58:32;;;;;;;1.00;0.60;;;24.10;98.20;;;;;;4961638;29;20458;-90
2023/08/03 07:01:00;;;;;;;1.00;0.70;;;24.10;98.20;;;;;;4964205;29;20492;-87
2023/08/03 07:03:26;;;;;;;1.00;0.70;;;24.10;98.30;;;;;;4962174;29;20990;-89
2023/08/03 07:05:53;;;;;;;1.70;0.63;;;24.20;98.30;;;;;;4960712;29;21011;-89
2023/08/03 07:08:28;;;;;;;1.00;0.70;;;24.20;98.30;;;;;;4966131;29;20461;-84
2023/08/03 07:10:54;;;;;;;1.23;0.87;;;24.10;98.40;;;;;;4966450;29;20432;-88
2023/08/03 07:13:21;;;;;;;4.93;0.80;;;24.10;98.30;;;;;;4958238;29;20447;-89
2023/08/03 07:15:50;;;;;;;2.07;1.10;;;24.10;98.40;;;;;;4958150;29;20457;-94
2023/08/03 07:18:17;;;;;;;1.10;0.70;;;24.10;98.40;;;;;;4957328;29;20444;-88
2023/08/03 07:20:44;;;;;;;3.60;1.20;;;24.20;98.70;;;;;;4956500;29;20486;-86
2023/08/03 07:23:11;;;;;;;2.30;0.80;;;24.20;98.60;;;;;;4956667;29;20446;-89
2023/08/03 07:25:39;;;;;;;2.90;1.20;;;24.10;98.70;;;;;;4956534;29;20446;-90
2023/08/03 07:28:06;;;;;;;2.17;0.93;;;24.10;98.60;;;;;;4956601;29;20482;-89
2023/08/03 07:30:36;;;;;;;1.30;1.10;;;24.10;98.70;;;;;;4956737;29;20445;-85
2023/08/03 07:33:03;;;;;;;1.40;1.10;;;24.10;98.70;;;;;;4956444;29;20494;-87
2023/08/03 07:35:30;;;;;;;1.37;0.93;;;24.10;98.70;;;;;;4957075;29;20451;-86
2023/08/03 07:37:57;;;;;;;2.40;1.20;;;24.10;98.80;;;;;;4956885;29;20834;-90
2023/08/03 07:40:23;;;;;;;2.37;1.00;;;24.10;98.90;;;;;;4956376;29;20498;-90
2023/08/03 07:42:52;;;;;;;1.60;1.00;;;24.10;99.00;;;;;;4956217;29;20454;-89
2023/08/03 07:45:19;;;;;;;3.50;1.00;;;24.10;99.10;;;;;;4956573;29;20491;-90
2023/08/03 07:47:48;;;;;;;1.63;1.37;;;24.10;99.10;;;;;;4956261;28;20445;-88
2023/08/03 07:50:15;;;;;;;1.33;1.20;;;24.10;99.10;;;;;;4955412;29;21016;-88
2023/08/03 07:52:41;;;;;;;1.63;0.90;;;24.10;99.20;;;;;;4956398;29;20479;-89
2023/08/03 07:55:09;;;;;;;1.73;1.00;;;24.10;99.20;;;;;;4956379;29;20452;-90
2023/08/03 07:57:38;;;;;;;9.13;1.50;;;24.10;99.20;;;;;;4956167;29;20503;-90
2023/08/03 08:00:08;;;;;;;9.10;1.20;;;24.10;99.10;;;;;;4956548;29;20490;-91
2023/08/03 08:02:34;;;;;;;3.00;1.03;;;24.10;99.10;;;;;;4958213;29;20523;-94
2023/08/03 08:05:01;;;;;;;6.60;1.20;;;24.10;99.10;;;;;;4956521;29;20448;-86
2023/08/03 08:07:29;;;;;;;5.23;1.47;;;24.10;99.10;;;;;;4957419;29;20451;-87
2023/08/03 08:09:56;;;;;;;2.60;1.33;;;24.10;99.00;;;;;;4959347;29;20455;-91
2023/08/03 08:12:22;;;;;;;4.17;1.10;;;24.20;99.10;;;;;;4957376;29;20449;-86
2023/08/03 08:14:49;;;;;;;2.50;1.60;;;24.10;99.20;;;;;;4956713;29;20545;-87
2023/08/03 08:17:17;;;;;;;2.97;1.40;;;24.20;99.20;;;;;;4956310;29;20451;-84
2023/08/03 08:19:45;;;;;;;4.80;1.00;;;24.20;99.10;;;;;;4956798;29;20523;-85
2023/08/03 08:22:12;;;;;;;2.63;0.97;;;24.20;99.00;;;;;;4957457;29;20451;-88
2023/08/03 08:24:39;;;;;;;4.83;1.20;;;24.20;99.10;;;;;;4959785;29;20497;-86
2023/08/03 08:27:06;;;;;;;1.53;0.93;;;24.20;99.00;;;;;;4960659;29;20489;-87
2023/08/03 08:29:34;;;;;;;2.97;1.40;;;24.20;99.10;;;;;;4959198;29;20478;-89
2023/08/03 08:32:01;;;;;;;3.87;1.23;;;24.20;99.10;;;;;;4959635;29;20510;-87
2023/08/03 08:34:29;;;;;;;2.13;1.07;;;24.20;99.00;;;;;;4960303;29;20482;-89
2023/08/03 08:36:57;;;;;;;2.17;0.97;;;24.20;99.00;;;;;;4960944;29;20924;-86
2023/08/03 08:39:24;;;;;;;1.53;1.00;;;24.20;99.00;;;;;;4962411;29;20447;-86
2023/08/03 08:41:52;;;;;;;2.00;1.40;;;24.20;99.00;;;;;;4962072;29;20490;-89
2023/08/03 08:44:19;;;;;;;2.07;1.00;;;24.20;98.90;;;;;;4964719;29;20471;-90
2023/08/03 08:46:46;;;;;;;1.10;0.90;;;24.20;98.90;;;;;;4966227;29;20460;-90
2023/08/03 08:49:13;;;;;;;2.33;1.03;;;24.30;98.90;;;;;;4947915;29;20501;-91
2023/08/03 08:51:43;;;;;;;3.20;1.10;;;24.30;98.80;;;;;;4965068;29;20470;-90
2023/08/03 08:54:15;;;;;;;7.90;1.10;;;24.30;98.90;;;;;;4961028;29;20454;-92
2023/08/03 08:56:43;;;;;;;2.17;1.20;;;24.30;99.20;;;;;;4960588;29;20456;-93
2023/08/03 08:59:13;;;;;;;2.57;1.30;;;24.30;99.10;;;;;;4961720;29;20505;-93
2023/08/03 09:01:51;;;;;;;3.27;0.90;;;24.30;99.30;;;;;;4970489;28;20498;-91
2023/08/03 09:04:28;;;;;;;3.40;2.00;;;24.30;99.20;;;;;;4971130;29;20451;-91
2023/08/03 09:07:06;;;;;;;3.20;1.00;;;24.30;99.50;;;;;;4951632;29;20447;-92
2023/08/03 09:09:41;;;;;;;1.70;1.00;;;24.30;99.50;;;;;;4968393;29;20931;-93
2023/08/03 09:12:10;;;;;;;1.40;0.90;;;24.30;99.60;;;;;;4967933;29;20460;-92
2023/08/03 09:18:15;;;;;;;2.67;1.30;;;24.40;99.70;;;;;;4901037;29;20450;-86
2023/08/03 09:20:42;;;;;;;2.80;1.30;;;24.30;99.40;;;;;;4959190;29;20981;-89
2023/08/03 09:23:26;;;;;;;1.93;1.13;;;24.30;99.30;;;;;;4959284;29;20520;-86
2023/08/03 09:25:53;;;;;;;1.63;1.10;;;24.30;99.20;;;;;;4959626;29;20785;-89
2023/08/03 09:28:20;;;;;;;1.83;1.37;;;24.30;99.20;;;;;;4958945;29;21008;-90
2023/08/03 09:30:51;;;;;;;2.10;1.07;;;24.50;99.20;;;;;;4959105;29;21009;-86
2023/08/03 09:33:17;;;;;;;1.57;1.00;;;24.30;99.00;;;;;;4959610;29;20450;-87
2023/08/03 09:35:46;;;;;;;4.87;1.17;;;24.30;98.90;;;;;;4959277;29;20456;-86
2023/08/03 09:38:25;;;;;;;3.63;1.50;;;24.30;99.00;;;;;;4959052;29;20448;-86
2023/08/03 09:40:52;;;;;;;2.60;1.07;;;24.30;99.00;;;;;;4959061;29;20483;-88
2023/08/03 09:43:20;;;;;;;2.07;1.20;;;24.30;99.00;;;;;;4959044;29;20851;-86
2023/08/03 09:45:47;;;;;;;2.73;1.13;;;24.30;98.90;;;;;;4958814;29;20533;-85
2023/08/03 09:48:15;;;;;;;4.13;1.50;;;24.30;98.90;;;;;;4958692;29;20789;-89
2023/08/03 09:50:47;;;;;;;2.23;0.90;;;24.30;98.80;;;;;;4958758;29;20459;-86
2023/08/03 09:53:19;;;;;;;4.07;1.27;;;24.30;99.30;;;;;;4958383;29;20956;-90
2023/08/03 09:55:57;;;;;;;1.30;0.90;;;24.30;99.30;;;;;;4958970;29;20434;-91
2023/08/03 09:58:30;;;;;;;2.60;1.00;;;24.30;99.00;;;;;;4958696;29;20454;-90
2023/08/03 10:01:00;;;;;;;1.20;1.00;;;24.30;98.90;;;;;;4958436;29;20915;-88
2023/08/03 10:03:29;;;;;;;2.03;0.90;;;24.30;99.00;;;;;;4958432;29;20435;-87
2023/08/03 10:06:00;;;;;;;3.50;0.90;;;24.30;98.90;;;;;;4958850;29;20486;-88
2023/08/03 10:08:32;;;;;;;1.33;0.90;;;24.30;99.00;;;;;;4958165;29;20538;-89
2023/08/03 10:11:03;;;;;;;1.37;0.90;;;24.50;99.00;;;;;;4958239;28;20887;-86
2023/08/03 10:13:33;;;;;;;2.80;1.10;;;24.30;99.00;;;;;;4958235;29;20538;-90
2023/08/03 10:16:01;;;;;;;2.90;1.00;;;24.30;99.10;;;;;;4958506;29;20440;-89
2023/08/03 10:18:30;;;;;;;3.00;1.00;;;24.40;99.10;;;;;;4958188;29;20490;-89
2023/08/03 10:20:57;;;;;;;1.93;0.83;;;24.30;99.00;;;;;;4958034;29;20526;-93
2023/08/03 10:23:24;;;;;;;1.67;1.20;;;24.40;99.10;;;;;;4958130;29;20454;-87
2023/08/03 10:25:52;;;;;;;2.23;1.00;;;24.40;99.40;;;;;;4958321;29;20443;-90
2023/08/03 10:28:21;;;;;;;1.10;0.90;;;24.40;99.30;;;;;;4958070;29;20579;-93
2023/08/03 10:31:12;;;;;;;2.90;1.00;;;24.40;99.20;;;;;;4958428;29;20465;-92
2023/08/03 10:34:07;;;;;;;1.33;1.17;;;24.40;99.30;;;;;;4958588;29;20514;-93
2023/08/03 10:36:39;;;;;;;3.47;1.73;;;24.40;99.30;;;;;;4958659;29;20908;-94
2023/08/03 10:39:07;;;;;;;1.00;0.80;;;24.30;99.20;;;;;;4958498;29;20486;-95
2023/08/03 10:41:37;;;;;;;1.33;0.90;;;24.30;99.20;;;;;;4958376;29;20508;-88
2023/08/03 10:44:24;;;;;;;2.37;0.93;;;24.40;99.30;;;;;;4958209;29;20448;-91
2023/08/03 10:46:52;;;;;;;1.20;1.10;;;24.40;99.40;;;;;;4957830;29;20447;-91
2023/08/03 10:49:48;;;;;;;2.17;1.00;;;24.30;99.40;;;;;;4957915;29;20462;-89
2023/08/03 10:52:19;;;;;;;1.20;1.00;;;24.30;99.20;;;;;;4957837;29;20472;-91
2023/08/03 10:54:46;;;;;;;1.20;0.87;;;24.40;99.30;;;;;;4958356;29;20439;-92
2023/08/03 10:57:15;;;;;;;1.10;0.80;;;24.40;99.20;;;;;;4958243;29;20452;-92
2023/08/03 10:59:45;;;;;;;1.87;1.27;;;24.30;99.20;;;;;;4957880;29;20524;-89
2023/08/03 11:02:14;;;;;;;2.70;1.37;;;24.40;99.30;;;;;;4957669;29;20583;-88
2023/08/03 11:04:42;;;;;;;1.43;0.90;;;24.40;99.20;;;;;;4957421;29;20439;-86
2023/08/03 11:07:10;;;;;;;1.40;0.90;;;24.30;99.30;;;;;;4957963;29;20444;-88
2023/08/03 11:09:37;;;;;;;2.80;0.90;;;24.30;99.00;;;;;;4957447;29;20471;-91
2023/08/03 11:12:07;;;;;;;1.10;0.80;;;24.30;99.10;;;;;;4961684;29;20436;-91
2023/08/03 11:14:36;;;;;;;1.90;1.10;;;24.10;99.20;;;;;;4967642;29;20453;-90
2023/08/03 11:17:08;;;;;;;1.10;0.87;;;24.30;99.20;;;;;;4968163;29;20806;-93
2023/08/03 11:19:38;;;;;;;1.23;1.13;;;24.30;99.30;;;;;;4949883;29;20444;-91
2023/08/03 11:22:06;;;;;;;1.67;0.90;;;24.40;99.30;;;;;;4967501;29;20490;-90
2023/08/03 11:24:37;;;;;;;1.43;0.90;;;24.20;99.20;;;;;;4967574;28;20440;-90
2023/08/03 11:29:47;;;;;;;2.63;1.27;;;24.20;99.30;;;;;;4968427;29;20449;-90
2023/08/03 11:32:22;;;;;;;2.13;0.93;;;24.20;99.30;;;;;;4968281;29;20542;-92
2023/08/03 11:37:45;;;;;;;1.67;0.93;;;24.20;99.30;;;;;;4965012;29;20455;-91
2023/08/03 11:40:17;;;;;;;2.13;1.00;;;24.20;99.30;;;;;;4963235;29;20473;-90
2023/08/03 11:42:46;;;;;;;1.27;1.00;;;24.20;99.30;;;;;;4961056;29;20518;-92
2023/08/03 11:48:36;;;;;;;1.50;1.10;;;24.20;99.10;;;;;;4958809;29;20406;-89
2023/08/03 11:51:04;;;;;;;0.97;0.80;;;24.20;99.20;;;;;;4958691;29;20452;-93
2023/08/03 11:53:31;;;;;;;1.97;1.00;;;24.20;99.30;;;;;;4962006;29;20482;-91
2023/08/03 11:55:59;;;;;;;2.10;1.03;;;24.30;99.40;;;;;;4961061;29;20787;-93
2023/08/03 11:58:25;;;;;;;1.97;0.90;;;24.20;99.20;;;;;;4959606;29;20451;-92
2023/08/03 12:01:01;;;;;;;1.60;1.00;;;24.20;99.20;;;;;;4960334;29;20482;-92
2023/08/03 12:03:32;;;;;;;1.40;1.10;;;24.20;99.20;;;;;;4961406;29;20546;-91
2023/08/03 12:06:05;;;;;;;1.40;1.20;;;24.30;99.70;;;;;;4959476;29;20855;-89
2023/08/03 12:08:40;;;;;;;1.37;0.90;;;24.20;99.30;;;;;;4960465;29;20475;-90
2023/08/03 12:11:08;;;;;;;1.43;1.03;;;24.20;99.30;;;;;;4962170;29;20850;-91
2023/08/03 12:13:35;;;;;;;1.63;1.17;;;24.20;99.40;;;;;;4962200;29;20447;-92
2023/08/03 12:16:02;;;;;;;1.50;1.10;;;24.20;99.50;;;;;;4965780;29;20511;-92
2023/08/03 12:21:11;;;;;;;2.80;1.20;;;24.20;99.50;;;;;;4956723;29;20524;-93
2023/08/03 12:23:38;;;;;;;2.60;1.27;;;24.20;99.60;;;;;;4956267;29;20455;-90
2023/08/03 12:26:07;;;;;;;3.63;1.40;;;24.30;99.50;;;;;;4956376;29;20550;-89
2023/08/03 12:28:34;;;;;;;4.77;1.60;;;24.30;99.40;;;;;;4955899;29;20479;-88
2023/08/03 12:31:00;;;;;;;1.37;0.90;;;24.30;99.30;;;;;;4955839;29;20450;-87
2023/08/03 12:33:27;;;;;;;1.70;1.50;;;24.30;99.50;;;;;;4956551;29;20536;-90
2023/08/03 12:35:54;;;;;;;2.60;1.60;;;24.30;99.50;;;;;;4955473;28;20460;-87
2023/08/03 12:38:22;;;;;;;2.80;1.40;;;24.30;99.40;;;;;;4955603;29;20443;-87
2023/08/03 12:40:49;;;;;;;1.30;1.10;;;24.30;99.40;;;;;;4955847;29;20442;-92
2023/08/03 12:43:16;;;;;;;2.50;1.23;;;24.40;99.50;;;;;;4955549;29;21019;-90
2023/08/03 12:45:42;;;;;;;1.93;1.00;;;24.30;99.80;;;;;;4956027;29;20438;-87
2023/08/03 12:48:09;;;;;;;1.60;1.00;;;24.40;99.50;;;;;;4955899;29;20532;-88
2023/08/03 12:50:36;;;;;;;2.30;1.33;;;24.30;99.40;;;;;;4955765;29;20445;-86
2023/08/03 12:53:03;;;;;;;1.30;1.07;;;24.30;99.50;;;;;;4955726;29;20946;-88
2023/08/03 12:55:31;;;;;;;2.13;1.10;;;24.40;99.50;;;;;;4955558;29;20807;-86
2023/08/03 12:57:57;;;;;;;2.13;1.13;;;24.40;99.50;;;;;;4955609;29;20442;-91
2023/08/03 13:00:27;;;;;;;1.83;1.13;;;24.40;99.60;;;;;;4955696;29;20455;-86
2023/08/03 13:02:54;;;;;;;2.30;1.40;;;24.40;99.70;;;;;;4955432;29;20491;-86
2023/08/03 13:05:20;;;;;;;1.73;1.00;;;24.40;99.70;;;;;;4955703;29;20453;-88
2023/08/03 13:07:47;;;;;;;3.23;1.10;;;24.40;99.60;;;;;;4955194;29;20454;-86
2023/08/03 13:10:14;;;;;;;1.73;1.43;;;24.40;99.80;;;;;;4955423;29;20813;-85
2023/08/03 13:12:43;;;;;;;1.73;1.20;;;24.40;99.60;;;;;;4955616;29;20502;-87
2023/08/03 13:15:10;;;;;;;8.97;1.10;;;24.40;99.60;;;;;;4955215;29;20950;-86
2023/08/03 13:17:37;;;;;;;3.67;1.17;;;24.40;99.60;;;;;;4955183;29;20885;-87
2023/08/03 13:20:04;;;;;;;1.30;1.07;;;24.40;99.60;;;;;;4955553;29;20467;-88